Alturas, California
Current Conditions -  °F | °C
As of 3:55 PM on Friday 24 Oct 2014 (Local Time) from KAAT Reporting Station
Clear Clear  
Wind Chill: 72°   Ceiling: Unl
Heat Index: 72°   Visibility: 10mi
Dew Point: 30°   Wind: 18mph
Humidity: 21%   Direction: 220°SW
Pressure: 29.92"   Gusts: 30mph
Location:  41.49°N, 120.54°W
Report Text: KAAT 242255Z AUTO 22016G26KT 10SM CLR 22/M01 A2992 RMK AO2 PK WND 21026/2249 SLP100 T02221011
Loading
Personal Weather Stations






























Interactive Weather Map New forecast layout! Learn more

10-Day Weather Forecast

Advertisements
Track Severe Weather on mobile